createdAt,value
2023-07-09T00:01:08.039Z,78.52
2023-07-09T00:03:38.909Z,78.66
2023-07-09T00:06:12.461Z,78.90
2023-07-09T00:08:48.114Z,78.78
2023-07-09T00:11:21.887Z,78.54
2023-07-09T00:13:52.781Z,78.99
2023-07-09T00:16:27.242Z,78.61
2023-07-09T00:18:58.115Z,78.78
2023-07-09T00:21:34.806Z,78.72
2023-07-09T00:24:06.793Z,78.80
2023-07-09T00:26:42.016Z,78.68
2023-07-09T00:29:14.193Z,78.09
2023-07-09T00:31:45.349Z,78.04
2023-07-09T00:34:23.296Z,78.03
2023-07-09T00:36:55.269Z,78.24
2023-07-09T00:39:28.406Z,77.52
2023-07-09T00:42:01.803Z,77.87
2023-07-09T00:44:34.889Z,77.73
2023-07-09T00:47:28.154Z,77.37
2023-07-09T00:50:10.927Z,77.36
2023-07-09T00:52:47.421Z,77.50
2023-07-09T00:55:21.649Z,77.45
2023-07-09T00:58:00.336Z,77.17
2023-07-09T01:00:39.095Z,77.25
2023-07-09T01:03:11.723Z,77.18
2023-07-09T01:05:45.080Z,77.27
2023-07-09T01:08:16.227Z,76.94
2023-07-09T01:10:47.032Z,76.66
2023-07-09T01:13:22.315Z,76.50
2023-07-09T01:15:55.139Z,76.62
2023-07-09T01:18:26.319Z,76.58
2023-07-09T01:21:07.857Z,77.06
2023-07-09T01:23:38.685Z,76.88
2023-07-09T01:26:09.427Z,76.87
2023-07-09T01:28:43.342Z,76.52
2023-07-09T01:31:15.399Z,76.55
2023-07-09T01:33:47.312Z,76.62
2023-07-09T01:36:25.562Z,76.62
2023-07-09T01:38:57.652Z,76.82
2023-07-09T01:41:28.784Z,77.27
2023-07-09T01:43:59.778Z,77.00
2023-07-09T01:46:31.884Z,77.33
2023-07-09T01:49:02.838Z,77.31
2023-07-09T01:51:37.581Z,77.29
2023-07-09T01:54:09.471Z,77.14
2023-07-09T01:56:40.673Z,77.19
2023-07-09T01:59:12.526Z,77.87
2023-07-09T02:01:43.989Z,77.84
2023-07-09T02:04:14.797Z,77.61
2023-07-09T02:06:48.272Z,77.72
2023-07-09T02:09:19.230Z,78.18
2023-07-09T02:11:50.054Z,78.33
2023-07-09T02:14:20.933Z,78.21
2023-07-09T02:16:52.331Z,78.21
2023-07-09T02:19:23.511Z,78.66
2023-07-09T02:21:56.954Z,78.26
2023-07-09T02:24:29.076Z,78.51
2023-07-09T02:27:01.022Z,78.79
2023-07-09T02:29:33.628Z,78.68
2023-07-09T02:32:05.609Z,78.56
2023-07-09T02:34:36.617Z,78.50
2023-07-09T02:37:09.994Z,78.85
2023-07-09T02:39:40.829Z,78.88
2023-07-09T02:42:13.406Z,78.88
2023-07-09T02:44:45.302Z,78.67
2023-07-09T02:47:18.312Z,79.04
2023-07-09T02:49:49.798Z,79.15
2023-07-09T02:52:23.162Z,79.12
2023-07-09T02:54:54.023Z,79.27
2023-07-09T02:57:24.817Z,79.18
2023-07-09T02:59:55.899Z,79.18
2023-07-09T03:02:27.422Z,79.43
2023-07-09T03:04:58.347Z,79.00
2023-07-09T03:07:31.850Z,79.35
2023-07-09T03:10:02.740Z,79.35
2023-07-09T03:12:34.867Z,79.29
2023-07-09T03:15:05.808Z,79.46
2023-07-09T03:17:36.636Z,79.05
2023-07-09T03:20:09.361Z,79.17
2023-07-09T03:22:42.752Z,79.28
2023-07-09T03:25:13.877Z,79.08
2023-07-09T03:27:45.044Z,79.18
2023-07-09T03:30:16.764Z,79.20
2023-07-09T03:32:48.430Z,79.22
2023-07-09T03:35:19.604Z,79.07
2023-07-09T03:37:53.278Z,79.44
2023-07-09T03:40:26.727Z,79.24
2023-07-09T03:42:57.674Z,79.55
2023-07-09T03:45:29.016Z,79.51
2023-07-09T03:47:59.826Z,79.33
2023-07-09T03:50:30.715Z,79.39
2023-07-09T03:53:04.389Z,79.32
2023-07-09T03:55:35.285Z,79.09
2023-07-09T03:58:06.911Z,79.04
2023-07-09T04:00:38.224Z,78.71
2023-07-09T04:03:10.025Z,78.31
2023-07-09T04:05:41.210Z,78.55
2023-07-09T04:08:14.560Z,77.97
2023-07-09T04:10:45.604Z,77.30
2023-07-09T04:13:16.796Z,77.25
2023-07-09T04:15:48.662Z,76.38
2023-07-09T04:18:19.524Z,76.22
2023-07-09T04:20:53.666Z,75.96
2023-07-09T04:23:27.085Z,75.29
2023-07-09T04:25:58.963Z,74.91
2023-07-09T04:28:29.747Z,74.56
2023-07-09T04:31:00.915Z,74.74
2023-07-09T04:33:31.899Z,74.32
2023-07-09T04:36:02.892Z,74.37
2023-07-09T04:38:36.645Z,73.45
2023-07-09T04:41:08.148Z,71.85
2023-07-09T04:43:38.972Z,72.03
2023-07-09T04:46:09.876Z,71.56
2023-07-09T04:48:40.743Z,70.56
2023-07-09T04:51:11.652Z,69.54
2023-07-09T04:53:45.234Z,69.37
2023-07-09T04:56:16.153Z,68.06
2023-07-09T04:58:46.919Z,68.09
2023-07-09T05:01:17.865Z,67.76
2023-07-09T05:03:48.843Z,67.65
2023-07-09T05:06:20.306Z,66.64
2023-07-09T05:08:53.692Z,64.40
2023-07-09T05:11:24.775Z,64.34
2023-07-09T05:13:55.681Z,63.48
2023-07-09T05:16:26.672Z,62.21
2023-07-09T05:18:57.653Z,60.81
2023-07-09T05:21:28.671Z,59.89
2023-07-09T05:24:02.081Z,58.63
2023-07-09T05:26:32.987Z,57.69
2023-07-09T05:29:03.838Z,56.65
2023-07-09T05:31:34.878Z,55.24
2023-07-09T05:34:05.733Z,52.97
2023-07-09T05:36:36.569Z,52.42
2023-07-09T05:39:10.555Z,51.63
2023-07-09T05:41:41.448Z,51.43
2023-07-09T05:44:12.329Z,49.86
2023-07-09T05:46:43.218Z,48.74
2023-07-09T05:49:14.737Z,47.58
2023-07-09T05:51:45.959Z,46.97
2023-07-09T05:54:20.166Z,46.01
2023-07-09T05:56:51.009Z,45.36
2023-07-09T05:59:21.892Z,44.90
2023-07-09T06:01:52.679Z,44.87
2023-07-09T06:04:23.474Z,43.95
2023-07-09T06:06:55.092Z,42.42
2023-07-09T06:09:28.920Z,41.67
2023-07-09T06:11:59.817Z,41.76
2023-07-09T06:14:30.720Z,41.16
2023-07-09T06:17:01.628Z,40.33
2023-07-09T06:19:32.433Z,39.67
2023-07-09T06:22:03.279Z,39.15
2023-07-09T06:24:36.929Z,37.83
2023-07-09T06:27:08.310Z,38.47
2023-07-09T06:29:39.054Z,38.17
2023-07-09T06:32:10.748Z,37.50
2023-07-09T06:34:41.428Z,37.30
2023-07-09T06:37:12.245Z,37.27
2023-07-09T06:39:45.770Z,37.39
2023-07-09T06:42:16.600Z,36.35
2023-07-09T06:45:09.991Z,35.82
2023-07-09T06:47:40.855Z,35.43
2023-07-09T06:50:12.438Z,35.92
2023-07-09T06:52:43.441Z,35.40
2023-07-09T06:55:17.144Z,34.80
2023-07-09T06:57:47.995Z,35.80
2023-07-09T07:00:20.632Z,35.51
2023-07-09T07:02:51.416Z,34.73
2023-07-09T07:05:23.535Z,33.71
2023-07-09T07:07:54.698Z,34.32
2023-07-09T07:10:28.211Z,33.84
2023-07-09T07:12:59.272Z,34.16
2023-07-09T07:15:30.168Z,33.23
2023-07-09T07:18:01.090Z,32.94
2023-07-09T07:20:32.026Z,31.65
2023-07-09T07:23:02.915Z,32.13
2023-07-09T07:25:37.120Z,32.26
2023-07-09T07:28:07.962Z,29.79
2023-07-09T07:30:38.642Z,30.30
2023-07-09T07:33:09.428Z,30.12
2023-07-09T07:36:00.200Z,30.41
2023-07-09T07:38:31.883Z,30.18
2023-07-09T07:41:05.443Z,29.78
2023-07-09T07:43:36.241Z,30.09
2023-07-09T07:46:07.651Z,29.47
2023-07-09T07:48:38.771Z,28.75
2023-07-09T07:51:09.573Z,29.23
2023-07-09T07:53:40.425Z,27.67
2023-07-09T07:56:14.514Z,27.30
2023-07-09T07:58:45.405Z,27.62
2023-07-09T08:01:16.226Z,27.57
2023-07-09T08:03:47.114Z,27.31
2023-07-09T08:06:17.865Z,27.66
2023-07-09T08:08:48.650Z,28.13
2023-07-09T08:11:22.093Z,28.77
2023-07-09T08:13:52.940Z,29.81
2023-07-09T08:16:23.873Z,29.88
2023-07-09T08:18:56.173Z,28.69
2023-07-09T08:21:27.093Z,28.67
2023-07-09T08:23:58.042Z,29.03
2023-07-09T08:26:32.744Z,28.90
2023-07-09T08:29:03.555Z,29.01
2023-07-09T08:31:34.222Z,29.39
2023-07-09T08:34:05.055Z,28.79
2023-07-09T08:36:35.806Z,28.52
2023-07-09T08:39:07.717Z,28.56
2023-07-09T08:41:47.143Z,28.17
2023-07-09T08:44:41.022Z,27.09
2023-07-09T08:47:21.222Z,27.97
2023-07-09T08:49:57.503Z,28.51
2023-07-09T08:52:32.772Z,29.17
2023-07-09T08:55:08.696Z,28.70
2023-07-09T08:57:44.589Z,28.29
2023-07-09T09:00:21.098Z,28.26
2023-07-09T09:02:57.526Z,28.27
2023-07-09T09:05:30.569Z,28.85
2023-07-09T09:08:08.599Z,28.20
2023-07-09T09:10:47.065Z,27.94
2023-07-09T09:13:25.075Z,27.82
2023-07-09T09:15:56.306Z,27.28
2023-07-09T09:18:30.204Z,27.91
2023-07-09T09:21:09.968Z,26.37
2023-07-09T09:23:47.141Z,26.71
2023-07-09T09:26:22.969Z,26.96
2023-07-09T09:28:57.120Z,26.23
2023-07-09T09:31:28.634Z,25.80
2023-07-09T09:33:59.581Z,26.54
2023-07-09T09:36:31.312Z,25.59
2023-07-09T09:39:06.374Z,25.27
2023-07-09T09:41:41.611Z,26.44
2023-07-09T09:44:23.927Z,26.72
2023-07-09T09:46:55.280Z,27.69
2023-07-09T09:49:26.553Z,27.33
2023-07-09T09:51:57.869Z,25.91
2023-07-09T09:54:32.603Z,26.27
2023-07-09T09:57:03.609Z,26.70
2023-07-09T09:59:40.799Z,26.30
2023-07-09T10:02:20.413Z,26.98
2023-07-09T10:04:51.965Z,27.03
2023-07-09T10:07:31.501Z,27.93
2023-07-09T10:10:02.620Z,26.05
2023-07-09T10:12:44.301Z,26.69
2023-07-09T10:15:43.004Z,25.13
2023-07-09T10:18:25.550Z,26.21
2023-07-09T10:21:07.230Z,25.33
2023-07-09T10:23:48.713Z,25.69
2023-07-09T10:26:26.396Z,25.40
2023-07-09T10:29:26.493Z,25.12
2023-07-09T10:32:07.402Z,25.21
2023-07-09T10:34:48.058Z,24.45
2023-07-09T10:37:38.985Z,26.13
2023-07-09T10:40:14.338Z,25.42
2023-07-09T10:42:49.979Z,24.98
2023-07-09T10:45:27.687Z,26.28
2023-07-09T10:48:05.461Z,25.53
2023-07-09T10:50:40.875Z,26.16
2023-07-09T10:53:18.083Z,25.52
2023-07-09T10:55:57.666Z,24.78
2023-07-09T10:58:39.191Z,24.92
2023-07-09T11:01:10.024Z,25.50
2023-07-09T11:03:48.937Z,26.71
2023-07-09T11:06:25.030Z,25.96
2023-07-09T11:09:00.150Z,27.35
2023-07-09T11:11:38.697Z,27.47
2023-07-09T11:14:15.820Z,27.23
2023-07-09T11:16:48.130Z,27.77
2023-07-09T11:19:23.943Z,27.35
2023-07-09T11:22:08.978Z,27.17
2023-07-09T11:24:52.005Z,26.59
2023-07-09T11:27:26.140Z,27.02
2023-07-09T11:30:04.489Z,28.13
2023-07-09T11:32:38.675Z,28.53
2023-07-09T11:35:26.856Z,29.22
2023-07-09T11:38:00.332Z,29.03
2023-07-09T11:40:31.190Z,29.18
2023-07-09T11:43:03.424Z,28.68
2023-07-09T11:45:36.912Z,28.93
2023-07-09T11:48:21.008Z,29.39
2023-07-09T11:50:56.758Z,30.13
2023-07-09T11:53:38.613Z,30.51
2023-07-09T11:56:14.838Z,31.43
2023-07-09T11:58:54.306Z,32.24
2023-07-09T12:01:27.481Z,31.98
2023-07-09T12:04:01.726Z,32.30
2023-07-09T12:06:37.672Z,32.95
2023-07-09T12:09:08.491Z,32.74
2023-07-09T12:11:39.354Z,32.20
2023-07-09T12:14:18.806Z,32.24
2023-07-09T12:16:51.584Z,32.91
2023-07-09T12:19:24.309Z,32.54
2023-07-09T12:22:01.039Z,33.14
2023-07-09T12:24:34.390Z,34.04
2023-07-09T12:27:07.008Z,32.05
2023-07-09T12:29:40.920Z,31.32
2023-07-09T12:32:18.572Z,31.44
2023-07-09T12:34:52.208Z,29.84
2023-07-09T12:37:26.527Z,29.30
2023-07-09T12:39:57.716Z,28.31
2023-07-09T12:42:34.990Z,27.49
2023-07-09T12:45:06.802Z,27.65
2023-07-09T12:47:38.317Z,26.52
2023-07-09T12:50:22.777Z,25.43
2023-07-09T12:52:59.110Z,25.74
2023-07-09T12:55:32.495Z,26.04
2023-07-09T12:58:04.305Z,26.70
2023-07-09T13:00:35.518Z,26.05
2023-07-09T13:03:06.835Z,27.28
2023-07-09T13:05:37.695Z,27.74
2023-07-09T13:08:18.805Z,28.18
2023-07-09T13:10:52.237Z,28.02
2023-07-09T13:13:26.109Z,26.93
2023-07-09T13:16:02.820Z,26.93
2023-07-09T13:18:33.786Z,27.13
2023-07-09T13:21:14.862Z,26.57
2023-07-09T13:23:48.520Z,26.85
2023-07-09T13:26:20.178Z,27.05
2023-07-09T13:28:52.679Z,28.24
2023-07-09T13:31:24.978Z,27.97
2023-07-09T13:34:00.875Z,28.43
2023-07-09T13:36:31.691Z,29.34
2023-07-09T13:39:05.050Z,29.63
2023-07-09T13:41:35.964Z,29.30
2023-07-09T13:44:14.994Z,29.52
2023-07-09T13:46:45.865Z,30.22
2023-07-09T13:49:20.215Z,29.96
2023-07-09T13:51:52.436Z,29.35
2023-07-09T13:54:28.502Z,29.80
2023-07-09T13:56:59.243Z,30.73
2023-07-09T13:59:32.749Z,29.21
2023-07-09T14:02:07.095Z,30.14
2023-07-09T14:04:38.253Z,30.61
2023-07-09T14:07:13.486Z,31.45
2023-07-09T14:09:46.811Z,32.23
2023-07-09T14:12:17.661Z,32.72
2023-07-09T14:14:48.555Z,34.05
2023-07-09T14:17:19.430Z,33.51
2023-07-09T14:19:50.367Z,33.72
2023-07-09T14:22:34.742Z,34.20
2023-07-09T14:25:09.937Z,34.49
2023-07-09T14:27:40.796Z,33.66
2023-07-09T14:30:18.413Z,33.42
2023-07-09T14:32:51.528Z,33.54
2023-07-09T14:35:24.746Z,33.81
2023-07-09T14:38:00.381Z,34.07
2023-07-09T14:40:33.884Z,34.99
2023-07-09T14:43:04.960Z,35.01
2023-07-09T14:45:36.381Z,35.06
2023-07-09T14:48:14.155Z,35.10
2023-07-09T14:50:46.077Z,35.43
2023-07-09T14:53:19.340Z,35.98
2023-07-09T14:55:53.218Z,35.83
2023-07-09T14:58:25.533Z,36.17
2023-07-09T15:00:57.089Z,36.84
2023-07-09T15:03:30.883Z,36.86
2023-07-09T15:06:04.124Z,36.72
2023-07-09T15:08:34.939Z,37.32
2023-07-09T15:11:08.628Z,36.99
2023-07-09T15:13:40.941Z,37.39
2023-07-09T15:16:12.977Z,37.45
2023-07-09T15:18:44.150Z,37.32
2023-07-09T15:21:16.617Z,37.15
2023-07-09T15:23:48.574Z,36.27
2023-07-09T15:26:21.932Z,36.83
2023-07-09T15:28:52.871Z,37.67
2023-07-09T15:31:23.769Z,37.52
2023-07-09T15:33:54.691Z,37.95
2023-07-09T15:36:25.550Z,37.89
2023-07-09T15:38:56.598Z,37.76
2023-07-09T15:41:30.200Z,37.78
2023-07-09T15:44:01.124Z,38.27
2023-07-09T15:46:32.125Z,39.03
2023-07-09T15:49:02.877Z,39.36
2023-07-09T15:51:33.732Z,39.14
2023-07-09T15:54:04.676Z,39.46
2023-07-09T15:56:39.031Z,39.08
2023-07-09T15:59:10.228Z,39.41
2023-07-09T16:01:40.992Z,38.67
2023-07-09T16:04:13.768Z,39.09
2023-07-09T16:06:44.859Z,39.06
2023-07-09T16:09:16.153Z,39.32
2023-07-09T16:11:52.114Z,40.21
2023-07-09T16:14:28.077Z,40.73
2023-07-09T16:17:00.129Z,40.79
2023-07-09T16:19:32.692Z,41.35
2023-07-09T16:22:06.860Z,41.59
2023-07-09T16:24:39.702Z,41.56
2023-07-09T16:27:19.144Z,41.97
2023-07-09T16:29:49.944Z,41.95
2023-07-09T16:32:20.795Z,42.38
2023-07-09T16:34:51.584Z,42.42
2023-07-09T16:37:26.806Z,42.26
2023-07-09T16:39:57.486Z,43.13
2023-07-09T16:42:31.538Z,43.15
2023-07-09T16:45:02.448Z,43.54
2023-07-09T16:47:36.209Z,43.55
2023-07-09T16:50:07.726Z,43.85
2023-07-09T16:52:38.463Z,44.44
2023-07-09T16:55:11.349Z,44.53
2023-07-09T16:57:45.187Z,44.61
2023-07-09T17:00:30.067Z,44.73
2023-07-09T17:03:04.680Z,45.21
2023-07-09T17:05:36.966Z,45.02
2023-07-09T17:08:08.172Z,45.65
2023-07-09T17:10:39.212Z,47.80
2023-07-09T17:13:16.758Z,47.87
2023-07-09T17:15:47.570Z,46.62
2023-07-09T17:18:23.086Z,45.23
2023-07-09T17:20:56.369Z,44.49
2023-07-09T17:23:30.449Z,43.96
2023-07-09T17:26:03.369Z,42.90
2023-07-09T17:28:37.373Z,42.97
2023-07-09T17:31:08.221Z,42.05
2023-07-09T17:33:40.242Z,42.18
2023-07-09T17:36:17.829Z,42.09
2023-07-09T17:38:50.290Z,42.03
2023-07-09T17:41:21.225Z,41.11
2023-07-09T17:43:54.791Z,40.29
2023-07-09T17:46:26.514Z,40.72
2023-07-09T17:48:57.377Z,39.96
2023-07-09T17:51:28.278Z,39.40
2023-07-09T17:53:59.006Z,40.88
2023-07-09T17:56:31.150Z,40.84
2023-07-09T17:59:05.039Z,40.82
2023-07-09T18:01:36.073Z,41.60
2023-07-09T18:04:22.725Z,42.67
2023-07-09T18:07:02.579Z,43.66
2023-07-09T18:09:34.616Z,44.29
2023-07-09T18:12:05.507Z,45.17
2023-07-09T18:14:42.103Z,45.87
2023-07-09T18:17:19.337Z,46.73
2023-07-09T18:19:50.249Z,47.08
2023-07-09T18:22:24.313Z,47.50
2023-07-09T18:24:55.084Z,48.22
2023-07-09T18:27:28.986Z,48.75
2023-07-09T18:30:02.849Z,49.90
2023-07-09T18:32:35.443Z,50.23
2023-07-09T18:35:22.091Z,50.81
2023-07-09T18:37:55.509Z,51.17
2023-07-09T18:40:26.401Z,51.85
2023-07-09T18:42:57.395Z,51.82
2023-07-09T18:45:32.570Z,52.11
2023-07-09T18:48:04.021Z,52.77
2023-07-09T18:50:36.080Z,53.24
2023-07-09T18:53:06.816Z,53.20
2023-07-09T18:55:38.008Z,53.83
2023-07-09T18:58:14.818Z,53.75
2023-07-09T19:00:49.497Z,53.54
2023-07-09T19:03:23.278Z,54.40
2023-07-09T19:05:54.396Z,54.15
2023-07-09T19:08:27.001Z,54.44
2023-07-09T19:10:58.164Z,54.86
2023-07-09T19:13:29.012Z,55.19
2023-07-09T19:16:03.672Z,55.33
2023-07-09T19:18:37.316Z,55.95
2023-07-09T19:21:09.289Z,55.76
2023-07-09T19:23:40.183Z,56.46
2023-07-09T19:26:13.855Z,56.32
2023-07-09T19:28:44.852Z,56.76
2023-07-09T19:31:18.479Z,57.37
2023-07-09T19:33:49.538Z,57.69
2023-07-09T19:36:26.576Z,58.23
2023-07-09T19:38:58.890Z,58.40
2023-07-09T19:41:31.004Z,58.00
2023-07-09T19:44:01.819Z,58.67
2023-07-09T19:46:35.683Z,58.06
2023-07-09T19:49:07.512Z,58.29
2023-07-09T19:51:38.422Z,58.68
2023-07-09T19:54:15.827Z,59.30
2023-07-09T19:56:50.159Z,58.80
2023-07-09T19:59:22.918Z,59.61
2023-07-09T20:01:56.322Z,59.22
2023-07-09T20:04:27.612Z,59.62
2023-07-09T20:06:58.606Z,59.68
2023-07-09T20:09:29.499Z,59.67
2023-07-09T20:12:01.548Z,60.05
2023-07-09T20:14:32.572Z,60.16
2023-07-09T20:17:06.041Z,60.02
2023-07-09T20:19:38.420Z,60.00
2023-07-09T20:22:09.770Z,60.57
2023-07-09T20:24:40.721Z,60.27
2023-07-09T20:27:16.155Z,60.74
2023-07-09T20:29:47.408Z,60.25
2023-07-09T20:32:22.409Z,60.99
2023-07-09T20:34:57.376Z,61.00
2023-07-09T20:37:28.198Z,60.79
2023-07-09T20:39:58.921Z,62.65
2023-07-09T20:42:29.703Z,63.41
2023-07-09T20:45:01.128Z,61.61
2023-07-09T20:47:34.645Z,58.85
2023-07-09T20:50:05.668Z,57.34
2023-07-09T20:52:36.473Z,55.64
2023-07-09T20:55:08.201Z,53.61
2023-07-09T20:57:39.670Z,52.91
2023-07-09T21:00:18.118Z,51.88
2023-07-09T21:02:53.046Z,52.58
2023-07-09T21:05:23.790Z,52.78
2023-07-09T21:07:54.966Z,51.94
2023-07-09T21:10:28.650Z,52.25
2023-07-09T21:12:59.390Z,52.08
2023-07-09T21:15:35.064Z,52.51
2023-07-09T21:18:11.394Z,51.79
2023-07-09T21:20:42.324Z,51.65
2023-07-09T21:23:17.891Z,51.82
2023-07-09T21:25:49.014Z,52.92
2023-07-09T21:28:20.193Z,52.40
2023-07-09T21:30:51.138Z,52.54
2023-07-09T21:33:33.233Z,52.71
2023-07-09T21:36:04.402Z,52.77
2023-07-09T21:38:35.464Z,52.96
2023-07-09T21:41:07.077Z,54.17
2023-07-09T21:43:37.967Z,54.74
2023-07-09T21:46:08.800Z,55.42
2023-07-09T21:48:42.251Z,55.92
2023-07-09T21:51:14.296Z,56.46
2023-07-09T21:54:06.820Z,56.96
2023-07-09T21:56:35.993Z,58.18
2023-07-09T21:59:09.627Z,58.67
2023-07-09T22:01:41.033Z,58.75
2023-07-09T22:04:19.658Z,59.95
2023-07-09T22:06:50.445Z,60.06
2023-07-09T22:09:21.238Z,59.95
2023-07-09T22:11:52.145Z,60.31
2023-07-09T22:14:25.348Z,61.18
2023-07-09T22:16:58.336Z,61.66
2023-07-09T22:19:43.674Z,61.76
2023-07-09T22:22:17.197Z,61.67
2023-07-09T22:24:47.962Z,62.02
2023-07-09T22:30:25.877Z,62.60
2023-07-09T22:33:00.455Z,63.17
2023-07-09T22:35:38.671Z,63.58
2023-07-09T22:38:22.037Z,63.64
2023-07-09T22:40:53.634Z,63.52
2023-07-09T22:43:24.423Z,63.65
2023-07-09T22:45:56.083Z,64.03
2023-07-09T22:48:26.858Z,64.16
2023-07-09T22:51:00.344Z,64.20
2023-07-09T22:53:31.221Z,64.25
2023-07-09T22:56:02.101Z,64.45
2023-07-09T22:58:33.181Z,64.66
2023-07-09T23:01:15.237Z,64.90
2023-07-09T23:03:47.379Z,64.60
2023-07-09T23:06:23.226Z,65.58
2023-07-09T23:08:55.283Z,64.64
2023-07-09T23:11:29.391Z,65.22
2023-07-09T23:14:01.018Z,65.49
2023-07-09T23:16:35.125Z,65.67
2023-07-09T23:19:18.568Z,65.96
2023-07-09T23:21:52.072Z,65.97
2023-07-09T23:24:23.235Z,66.50
2023-07-09T23:26:57.659Z,66.08
2023-07-09T23:29:28.470Z,66.76
2023-07-09T23:31:59.274Z,66.71
2023-07-09T23:34:30.060Z,67.19
2023-07-09T23:37:04.796Z,67.19
2023-07-09T23:39:35.553Z,67.33
2023-07-09T23:42:06.530Z,67.60
2023-07-09T23:44:37.376Z,67.26
2023-07-09T23:47:14.776Z,67.52
2023-07-09T23:49:45.589Z,67.79
2023-07-09T23:52:19.015Z,67.75
2023-07-09T23:54:49.890Z,67.87
2023-07-09T23:57:20.797Z,67.83
2023-07-09T23:59:52.195Z,67.88
